Shin Puropan Maru — JG5508 — position and weather

sailwx.info

Track history (hours):
 
Tides and Currents Weather Stations Pressure Air Temp Water Temp Dewpoint Dewpoint Depression Visibility Wind Speed Wind Dir Waves Ship Positions

Shin Puropan Maru

Last reported at 2016-Jul-01 18:07 UTC. Time now 2016-Jul-01 19:01 UTC.
Position N 34°34' E 135°23'.

Length 66 m; draft 3.5 m.

Type: Ship (hazmat cat A). MMSI: 431100348.

Date/timePositionNaut miles runAvg speedWind from/ knotsBaromVisibWave heightAir tempDewpointWater temp
2016-Jul-01 18:07N 34°34' E 135°23'0 0.0
2016-Jul-01 17:13N 34°34' E 135°23'0 0.0
2016-Jul-01 16:13N 34°34' E 135°23'0 0.0
2016-Jul-01 15:19N 34°34' E 135°23'0 0.0
2016-Jul-01 14:19N 34°34' E 135°23'0 0.0
2016-Jul-01 13:31N 34°34' E 135°23'0 0.0
2016-Jul-01 12:31N 34°34' E 135°23'0 0.0
2016-Jul-01 08:25N 34°34' E 135°23'0 0.1
2016-Jul-01 07:31N 34°34' E 135°23'0 0.0
2016-Jul-01 06:31N 34°34' E 135°23'0 0.0
2016-Jul-01 03:33N 34°34' E 135°23'2 0.6
2016-Jul-01 00:25N 34°34' E 135°26'4 4.0
2016-Jun-30 23:32N 34°36' E 135°22'3 2.9
2016-Jun-30 22:33N 34°34' E 135°19'10 9.5
2016-Jun-30 21:33N 34°27' E 135°11'1211.3
2016-Jun-30 20:31N 34°19' E 135°01'1111.9
2016-Jun-30 19:33N 34°08' E 135°01'3 0.1
2016-Jun-29 09:14N 34°05' E 135°03'812.0
2016-Jun-29 08:33N 34°13' E 135°02'1611.8
2016-Jun-29 07:11N 34°27' E 135°12'813.0
2016-Jun-29 06:32N 34°33' E 135°19'6 1.6
2016-Jun-29 03:07N 34°34' E 135°26'3 6.2
2016-Jun-29 02:33N 34°36' E 135°22'1211.8
2016-Jun-29 01:33N 34°28' E 135°12'20 9.8
2016-Jun-28 23:32N 34°10' E 134°60'236 5.9
2016-Jun-27 07:17N 35°05' E 139°39'912.2
2016-Jun-27 06:33N 35°12' E 139°46'1212.3
2016-Jun-27 05:34N 35°24' E 139°43'1312.9
2016-Jun-27 04:33N 35°31' E 139°56'8 7.8
2016-Jun-27 03:33N 35°33' E 140°05'0 0.0
2016-Jun-27 02:33N 35°33' E 140°05'0 0.0
2016-Jun-27 01:33N 35°33' E 140°05'0 0.0
2016-Jun-27 00:33N 35°33' E 140°05'0 0.0
2016-Jun-26 23:33N 35°33' E 140°05'4 3.6
2016-Jun-26 22:33N 35°33' E 140°01'5 4.6
2016-Jun-26 21:33N 35°32' E 139°55'0 0.0
2016-Jun-26 20:33N 35°32' E 139°55'0 0.0
2016-Jun-26 19:33N 35°32' E 139°55'0 0.0
2016-Jun-26 18:34N 35°32' E 139°55'0 0.0
2016-Jun-26 17:34N 35°32' E 139°55'0 0.1
2016-Jun-26 16:33N 35°32' E 139°55'0 0.0
2016-Jun-26 15:33N 35°32' E 139°55'0 0.0
2016-Jun-26 14:33N 35°32' E 139°55'0 0.0
2016-Jun-26 13:33N 35°32' E 139°55'0 0.0
2016-Jun-26 12:33N 35°32' E 139°55'3 3.3
2016-Jun-26 11:33N 35°30' E 139°53'1212.3
2016-Jun-26 10:34N 35°20' E 139°44'1212.0
2016-Jun-26 09:33N 35°08' E 139°46'24110.5
2016-Jun-25 10:33N 34°06' E 135°02'2411.8
2016-Jun-25 08:33N 34°28' E 135°13'1211.7
2016-Jun-25 07:33N 34°36' E 135°23'3 0.3
2016-Jun-24 23:04N 34°35' E 135°26'0 0.9
2016-Jun-24 22:33N 34°35' E 135°25'2 1.9
2016-Jun-24 21:28N 34°36' E 135°23'0 0.0
2016-Jun-24 19:16N 34°36' E 135°23'0 0.0
2016-Jun-24 18:22N 34°36' E 135°23'0 0.0
2016-Jun-24 17:28N 34°36' E 135°23'0 0.0
2016-Jun-24 16:28N 34°36' E 135°23'0 0.0
2016-Jun-24 14:04N 34°36' E 135°23'0 0.0
2016-Jun-24 13:10N 34°36' E 135°23'0 0.0
2016-Jun-24 12:22N 34°36' E 135°23'0 0.1
2016-Jun-24 11:28N 34°36' E 135°23'0 0.0
2016-Jun-24 10:28N 34°36' E 135°23'0 0.0
2016-Jun-24 09:04N 34°36' E 135°23'0 0.0
2016-Jun-24 04:16N 34°36' E 135°23'0 0.1
2016-Jun-24 03:22N 34°36' E 135°23'5 6.0
2016-Jun-24 02:33N 34°33' E 135°18'1211.8
2016-Jun-24 01:33N 34°25' E 135°08'1311.4
2016-Jun-24 00:25N 34°13' E 134°60'12 0.3
2016-Jun-22 13:04N 34°02' E 135°03'611.8
2016-Jun-22 12:33N 34°08' E 135°03'2210.9
2016-Jun-22 10:33N 34°28' E 135°13'1211.9
2016-Jun-22 09:33N 34°36' E 135°24'2 0.8
2016-Jun-22 06:29N 34°34' E 135°26'3 2.9
2016-Jun-22 05:33N 34°36' E 135°24'3 0.5
2016-Jun-21 23:33N 34°33' E 135°23'1 0.5
2016-Jun-21 22:18N 34°34' E 135°23'0 0.1
2016-Jun-21 21:30N 34°34' E 135°23'0 0.0
2016-Jun-21 20:12N 34°34' E 135°23'0 0.0
2016-Jun-21 19:30N 34°34' E 135°23'0 0.0
2016-Jun-21 18:24N 34°34' E 135°23'  
Track history (hours):
 
Tides and Currents Weather Stations Pressure Air Temp Water Temp Dewpoint Dewpoint Depression Visibility Wind Speed Wind Dir Waves Ship Positions

Shin Puropan Maru

Last reported at 2016-Jul-01 18:07 UTC. Time now 2016-Jul-01 19:01 UTC.
Position N 34°34' E 135°23'.

Length 66 m; draft 3.5 m.

Type: Ship (hazmat cat A). MMSI: 431100348.

Date/timePositionNaut miles runAvg speedWind from/ knotsBaromVisibWave heightAir tempDewpointWater temp
2016-Jul-01 18:07N 34°34' E 135°23'0 0.0
2016-Jul-01 17:13N 34°34' E 135°23'0 0.0
2016-Jul-01 16:13N 34°34' E 135°23'0 0.0
2016-Jul-01 15:19N 34°34' E 135°23'0 0.0
2016-Jul-01 14:19N 34°34' E 135°23'0 0.0
2016-Jul-01 13:31N 34°34' E 135°23'0 0.0
2016-Jul-01 12:31N 34°34' E 135°23'0 0.0
2016-Jul-01 08:25N 34°34' E 135°23'0 0.1
2016-Jul-01 07:31N 34°34' E 135°23'0 0.0
2016-Jul-01 06:31N 34°34' E 135°23'0 0.0
2016-Jul-01 03:33N 34°34' E 135°23'2 0.6
2016-Jul-01 00:25N 34°34' E 135°26'4 4.0
2016-Jun-30 23:32N 34°36' E 135°22'3 2.9
2016-Jun-30 22:33N 34°34' E 135°19'10 9.5
2016-Jun-30 21:33N 34°27' E 135°11'1211.3
2016-Jun-30 20:31N 34°19' E 135°01'1111.9
2016-Jun-30 19:33N 34°08' E 135°01'3 0.1
2016-Jun-29 09:14N 34°05' E 135°03'812.0
2016-Jun-29 08:33N 34°13' E 135°02'1611.8
2016-Jun-29 07:11N 34°27' E 135°12'813.0
2016-Jun-29 06:32N 34°33' E 135°19'6 1.6
2016-Jun-29 03:07N 34°34' E 135°26'3 6.2
2016-Jun-29 02:33N 34°36' E 135°22'1211.8
2016-Jun-29 01:33N 34°28' E 135°12'20 9.8
2016-Jun-28 23:32N 34°10' E 134°60'236 5.9
2016-Jun-27 07:17N 35°05' E 139°39'912.2
2016-Jun-27 06:33N 35°12' E 139°46'1212.3
2016-Jun-27 05:34N 35°24' E 139°43'1312.9
2016-Jun-27 04:33N 35°31' E 139°56'8 7.8
2016-Jun-27 03:33N 35°33' E 140°05'0 0.0
2016-Jun-27 02:33N 35°33' E 140°05'0 0.0
2016-Jun-27 01:33N 35°33' E 140°05'0 0.0
2016-Jun-27 00:33N 35°33' E 140°05'0 0.0
2016-Jun-26 23:33N 35°33' E 140°05'4 3.6
2016-Jun-26 22:33N 35°33' E 140°01'5 4.6
2016-Jun-26 21:33N 35°32' E 139°55'0 0.0
2016-Jun-26 20:33N 35°32' E 139°55'0 0.0
2016-Jun-26 19:33N 35°32' E 139°55'0 0.0
2016-Jun-26 18:34N 35°32' E 139°55'0 0.0
2016-Jun-26 17:34N 35°32' E 139°55'0 0.1
2016-Jun-26 16:33N 35°32' E 139°55'0 0.0
2016-Jun-26 15:33N 35°32' E 139°55'0 0.0
2016-Jun-26 14:33N 35°32' E 139°55'0 0.0
2016-Jun-26 13:33N 35°32' E 139°55'0 0.0
2016-Jun-26 12:33N 35°32' E 139°55'3 3.3
2016-Jun-26 11:33N 35°30' E 139°53'1212.3
2016-Jun-26 10:34N 35°20' E 139°44'1212.0
2016-Jun-26 09:33N 35°08' E 139°46'24110.5
2016-Jun-25 10:33N 34°06' E 135°02'2411.8
2016-Jun-25 08:33N 34°28' E 135°13'1211.7
2016-Jun-25 07:33N 34°36' E 135°23'3 0.3
2016-Jun-24 23:04N 34°35' E 135°26'0 0.9
2016-Jun-24 22:33N 34°35' E 135°25'2 1.9
2016-Jun-24 21:28N 34°36' E 135°23'0 0.0
2016-Jun-24 19:16N 34°36' E 135°23'0 0.0
2016-Jun-24 18:22N 34°36' E 135°23'0 0.0
2016-Jun-24 17:28N 34°36' E 135°23'0 0.0
2016-Jun-24 16:28N 34°36' E 135°23'0 0.0
2016-Jun-24 14:04N 34°36' E 135°23'0 0.0
2016-Jun-24 13:10N 34°36' E 135°23'0 0.0
2016-Jun-24 12:22N 34°36' E 135°23'0 0.1
2016-Jun-24 11:28N 34°36' E 135°23'0 0.0
2016-Jun-24 10:28N 34°36' E 135°23'0 0.0
2016-Jun-24 09:04N 34°36' E 135°23'0 0.0
2016-Jun-24 04:16N 34°36' E 135°23'0 0.1
2016-Jun-24 03:22N 34°36' E 135°23'5 6.0
2016-Jun-24 02:33N 34°33' E 135°18'1211.8
2016-Jun-24 01:33N 34°25' E 135°08'1311.4
2016-Jun-24 00:25N 34°13' E 134°60'12 0.3
2016-Jun-22 13:04N 34°02' E 135°03'611.8
2016-Jun-22 12:33N 34°08' E 135°03'2210.9
2016-Jun-22 10:33N 34°28' E 135°13'1211.9
2016-Jun-22 09:33N 34°36' E 135°24'2 0.8
2016-Jun-22 06:29N 34°34' E 135°26'3 2.9
2016-Jun-22 05:33N 34°36' E 135°24'3 0.5
2016-Jun-21 23:33N 34°33' E 135°23'1 0.5
2016-Jun-21 22:18N 34°34' E 135°23'0 0.1
2016-Jun-21 21:30N 34°34' E 135°23'0 0.0
2016-Jun-21 20:12N 34°34' E 135°23'0 0.0
2016-Jun-21 19:30N 34°34' E 135°23'0 0.0
2016-Jun-21 18:24N 34°34' E 135°23'  

Dump ship's entire track history